Time;durP1;ratioP1;P1;durP2;ratioP2;P2;SDS_P1;SDS_P2;PMS_P1;PMS_P2;Temp;Humidity;BMP_temperature;BMP_pressure;BME280_temperature;BME280_humidity;BME280_pressure;Samples;Min_cycle;Max_cycle;Signal;HPM_P1;HPM_P2
2021/05/08 00:01:54;;;;;;;1.20;0.37;;;13.20;99.90;;;;;;5036867;28;20220;-91
2021/05/08 00:04:25;;;;;;;1.00;0.40;;;13.20;99.90;;;;;;5036104;28;20599;-90
2021/05/08 00:06:56;;;;;;;0.30;0.30;;;13.40;99.90;;;;;;5035836;28;20282;-91
2021/05/08 00:09:27;;;;;;;0.50;0.40;;;13.30;99.90;;;;;;5036359;28;20623;-91
2021/05/08 00:12:00;;;;;;;0.40;0.40;;;13.40;99.90;;;;;;5035540;28;20259;-90
2021/05/08 00:14:31;;;;;;;1.47;0.40;;;13.70;99.90;;;;;;5037409;28;20740;-89
2021/05/08 00:17:02;;;;;;;1.10;0.40;;;13.80;99.90;;;;;;5035011;28;20243;-90
2021/05/08 00:19:34;;;;;;;0.60;0.40;;;13.80;99.90;;;;;;5036359;28;20259;-90
2021/05/08 00:22:05;;;;;;;1.13;0.40;;;13.70;99.90;;;;;;5036579;28;20215;-90
2021/05/08 00:24:36;;;;;;;0.57;0.50;;;13.70;99.90;;;;;;5047079;28;20209;-91
2021/05/08 00:27:09;;;;;;;0.90;0.37;;;13.50;99.90;;;;;;5054696;28;20222;-90
2021/05/08 00:29:39;;;;;;;0.77;0.60;;;13.50;99.90;;;;;;5055564;28;20213;-91
2021/05/08 00:32:12;;;;;;;2.43;0.30;;;13.30;99.90;;;;;;5039370;28;20248;-90
2021/05/08 00:34:42;;;;;;;0.90;0.57;;;13.10;99.90;;;;;;5037964;28;20241;-90
2021/05/08 00:37:13;;;;;;;1.17;0.40;;;13.10;99.90;;;;;;5039013;28;20211;-90
2021/05/08 00:39:44;;;;;;;0.70;0.37;;;13.10;99.90;;;;;;5041639;28;20204;-90
2021/05/08 00:42:17;;;;;;;0.87;0.43;;;13.10;99.90;;;;;;5056423;28;20247;-90
2021/05/08 00:44:48;;;;;;;1.47;0.70;;;13.10;99.90;;;;;;5057780;28;20283;-90
2021/05/08 00:47:20;;;;;;;1.03;0.40;;;13.10;99.90;;;;;;5055310;28;20267;-90
2021/05/08 00:49:52;;;;;;;0.50;0.37;;;13.10;99.90;;;;;;5038270;28;20281;-90
2021/05/08 00:52:23;;;;;;;0.40;0.40;;;13.10;99.90;;;;;;5055652;28;20216;-90
2021/05/08 00:54:54;;;;;;;1.73;0.50;;;13.10;99.90;;;;;;5055616;28;20291;-90
2021/05/08 00:57:27;;;;;;;0.77;0.40;;;13.10;99.90;;;;;;5053936;28;20201;-89
2021/05/08 00:59:58;;;;;;;0.80;0.40;;;13.10;99.90;;;;;;5037220;28;20204;-88
2021/05/08 01:02:29;;;;;;;0.50;0.40;;;13.50;99.90;;;;;;5054477;28;20234;-88
2021/05/08 01:04:59;;;;;;;1.40;0.50;;;13.90;99.90;;;;;;5054059;28;20212;-88
2021/05/08 01:07:30;;;;;;;1.03;0.40;;;14.60;99.90;;;;;;5053666;28;20216;-88
2021/05/08 01:10:01;;;;;;;0.50;0.33;;;15.30;99.90;;;;;;5054998;28;20262;-91
2021/05/08 01:12:33;;;;;;;1.17;0.30;;;15.20;99.90;;;;;;5054465;28;20209;-90
2021/05/08 01:15:06;;;;;;;0.97;0.60;;;14.70;99.90;;;;;;5054717;28;20677;-91
2021/05/08 01:17:38;;;;;;;1.37;0.40;;;14.40;99.90;;;;;;5054265;28;20204;-91
2021/05/08 01:20:11;;;;;;;1.17;0.60;;;14.10;99.90;;;;;;5058721;28;20204;-90
2021/05/08 01:22:49;;;;;;;0.50;0.40;;;13.80;99.90;;;;;;5057982;28;20296;-90
2021/05/08 01:25:22;;;;;;;0.87;0.53;;;13.60;99.90;;;;;;5058759;28;20203;-91
2021/05/08 01:27:54;;;;;;;0.73;0.30;;;13.50;99.90;;;;;;5057747;28;20236;-91
2021/05/08 01:30:27;;;;;;;0.40;0.40;;;13.40;99.90;;;;;;5042139;28;20240;-90
2021/05/08 01:32:58;;;;;;;1.10;0.67;;;13.30;99.90;;;;;;5038302;28;20223;-91
2021/05/08 01:35:29;;;;;;;0.90;0.50;;;13.30;99.90;;;;;;5037916;28;20244;-91
2021/05/08 01:38:03;;;;;;;0.50;0.40;;;13.30;99.90;;;;;;5037574;28;20213;-91
2021/05/08 01:40:34;;;;;;;1.20;0.50;;;13.10;99.90;;;;;;5038323;28;20208;-90
2021/05/08 01:43:05;;;;;;;0.50;0.40;;;13.10;99.90;;;;;;5039773;28;20201;-90
2021/05/08 01:45:36;;;;;;;2.47;0.70;;;12.90;99.90;;;;;;5037970;28;20257;-90
2021/05/08 01:48:11;;;;;;;1.80;0.57;;;12.90;99.90;;;;;;5038562;28;20592;-90
2021/05/08 01:50:42;;;;;;;1.33;0.60;;;12.80;99.90;;;;;;5038366;28;20231;-90
2021/05/08 01:53:15;;;;;;;0.53;0.53;;;12.80;99.90;;;;;;5038166;28;20661;-90
2021/05/08 01:55:45;;;;;;;1.67;0.40;;;12.70;99.90;;;;;;5038290;28;20232;-90
2021/05/08 01:58:16;;;;;;;0.90;0.50;;;12.60;99.90;;;;;;5040060;28;20205;-90
2021/05/08 02:00:49;;;;;;;1.47;0.60;;;12.60;99.90;;;;;;5039741;28;20228;-90
2021/05/08 02:03:20;;;;;;;0.70;0.50;;;12.50;99.90;;;;;;5022666;28;20208;-89
2021/05/08 02:05:52;;;;;;;1.03;0.57;;;12.50;99.90;;;;;;5037911;28;20233;-88
2021/05/08 02:08:25;;;;;;;1.63;0.90;;;12.30;99.90;;;;;;5037770;28;20262;-90
2021/05/08 02:10:56;;;;;;;1.17;0.70;;;12.30;99.90;;;;;;5039704;28;20298;-90
2021/05/08 02:13:26;;;;;;;1.07;0.70;;;12.30;99.90;;;;;;5020814;28;20232;-90
2021/05/08 02:15:57;;;;;;;3.93;0.93;;;12.30;99.90;;;;;;5041699;28;20611;-91
2021/05/08 02:18:28;;;;;;;0.97;0.60;;;12.40;99.90;;;;;;5039075;28;20235;-91
2021/05/08 02:20:58;;;;;;;2.57;0.60;;;12.40;99.90;;;;;;5038104;28;20263;-91
2021/05/08 02:23:30;;;;;;;1.57;0.50;;;12.40;99.90;;;;;;5039066;28;20266;-90
2021/05/08 02:26:00;;;;;;;1.43;0.70;;;12.30;99.90;;;;;;5041113;28;20220;-90
2021/05/08 02:28:30;;;;;;;0.97;0.50;;;12.30;99.90;;;;;;5054756;28;20201;-90
2021/05/08 02:31:00;;;;;;;2.27;0.70;;;12.20;99.90;;;;;;5037619;28;20271;-90
2021/05/08 02:33:30;;;;;;;2.67;0.90;;;12.10;99.90;;;;;;5038583;28;20224;-90
2021/05/08 02:36:00;;;;;;;1.80;0.53;;;12.10;99.90;;;;;;5039237;28;20259;-91
2021/05/08 02:38:31;;;;;;;2.73;0.80;;;11.90;99.90;;;;;;5040542;28;20213;-91
2021/05/08 02:41:02;;;;;;;1.47;0.90;;;11.90;99.90;;;;;;5039265;28;20219;-91
2021/05/08 02:43:32;;;;;;;1.33;0.60;;;11.80;99.90;;;;;;5044348;28;20259;-90
2021/05/08 02:46:03;;;;;;;3.23;0.70;;;11.70;99.90;;;;;;5046275;28;20228;-90
2021/05/08 02:48:33;;;;;;;2.60;0.60;;;11.70;99.90;;;;;;5043706;28;20208;-90
2021/05/08 02:51:04;;;;;;;1.73;1.00;;;11.60;99.90;;;;;;5025331;28;20281;-90
2021/05/08 02:53:37;;;;;;;1.43;0.70;;;11.50;99.90;;;;;;5039428;28;20235;-90
2021/05/08 02:56:07;;;;;;;2.13;0.90;;;11.40;99.90;;;;;;5022351;28;20221;-90
2021/05/08 02:58:38;;;;;;;1.60;0.70;;;11.40;99.90;;;;;;5037543;28;20213;-90
2021/05/08 03:01:08;;;;;;;1.37;0.80;;;11.40;99.90;;;;;;5037070;28;20602;-89
2021/05/08 03:03:38;;;;;;;1.90;0.73;;;11.40;99.90;;;;;;5038199;28;20201;-90
2021/05/08 03:06:09;;;;;;;3.93;0.70;;;11.40;99.90;;;;;;5036769;28;20278;-90
2021/05/08 03:08:41;;;;;;;2.03;0.87;;;11.30;99.90;;;;;;5036367;28;20205;-90
2021/05/08 03:11:11;;;;;;;2.00;0.70;;;11.20;99.90;;;;;;5036916;28;20236;-89
2021/05/08 03:13:44;;;;;;;3.00;1.00;;;11.10;99.90;;;;;;5036578;28;20204;-90
2021/05/08 03:16:15;;;;;;;2.33;0.90;;;11.00;99.90;;;;;;5037218;28;20237;-90
2021/05/08 03:18:46;;;;;;;2.83;1.20;;;10.90;99.90;;;;;;5037316;28;20631;-90
2021/05/08 03:21:17;;;;;;;4.20;1.10;;;10.80;99.90;;;;;;5020385;28;20238;-90
2021/05/08 03:23:50;;;;;;;1.63;0.90;;;10.70;99.90;;;;;;5036750;28;20205;-90
2021/05/08 03:26:20;;;;;;;1.77;0.87;;;10.60;99.90;;;;;;5037069;28;20233;-90
2021/05/08 03:28:51;;;;;;;2.03;1.03;;;10.50;99.90;;;;;;5035911;28;20212;-90
2021/05/08 03:31:21;;;;;;;1.77;0.97;;;10.40;99.90;;;;;;5037051;28;20579;-90
2021/05/08 03:33:52;;;;;;;2.10;0.90;;;10.30;99.90;;;;;;5036859;28;20200;-90
2021/05/08 03:36:23;;;;;;;3.27;0.93;;;10.20;99.90;;;;;;5036775;28;20213;-91
2021/05/08 03:38:56;;;;;;;0.97;0.80;;;10.20;99.90;;;;;;5036096;28;20207;-91
2021/05/08 03:41:27;;;;;;;4.77;1.50;;;10.20;99.90;;;;;;5036094;28;20212;-90
2021/05/08 03:43:58;;;;;;;2.33;1.10;;;10.10;99.90;;;;;;5036635;28;20269;-90
2021/05/08 03:46:28;;;;;;;4.63;1.10;;;10.10;99.90;;;;;;5036744;28;20323;-90
2021/05/08 03:48:59;;;;;;;3.00;1.17;;;10.00;99.90;;;;;;5037005;28;20205;-90
2021/05/08 03:51:31;;;;;;;3.20;1.13;;;10.00;99.90;;;;;;5038092;28;20209;-90
2021/05/08 03:54:03;;;;;;;4.37;1.20;;;10.00;99.90;;;;;;5038223;28;20657;-89
2021/05/08 03:56:34;;;;;;;2.10;1.10;;;10.00;99.90;;;;;;5037166;28;20208;-90
2021/05/08 03:59:05;;;;;;;4.27;1.50;;;10.10;99.90;;;;;;5037503;28;20213;-88
2021/05/08 04:01:36;;;;;;;3.33;1.30;;;10.10;99.90;;;;;;5039956;28;20267;-89
2021/05/08 04:04:07;;;;;;;3.30;1.30;;;10.10;99.90;;;;;;5037670;28;20224;-89
2021/05/08 04:06:38;;;;;;;6.97;2.13;;;9.90;99.90;;;;;;5038939;28;20255;-90
2021/05/08 04:09:11;;;;;;;4.10;1.70;;;9.90;99.90;;;;;;5039189;28;20208;-90
2021/05/08 04:11:42;;;;;;;5.60;1.50;;;10.00;99.90;;;;;;5037434;28;20231;-89
2021/05/08 04:14:13;;;;;;;4.73;1.50;;;10.10;99.90;;;;;;5031759;28;20205;-90
2021/05/08 04:16:43;;;;;;;6.80;1.40;;;10.20;99.90;;;;;;5040053;28;20204;-90
2021/05/08 04:19:14;;;;;;;3.63;1.20;;;10.30;99.90;;;;;;5038673;28;20227;-90
2021/05/08 04:21:44;;;;;;;4.63;1.50;;;10.30;99.90;;;;;;5039951;28;20259;-90
2021/05/08 04:24:16;;;;;;;5.37;1.50;;;10.30;99.90;;;;;;5039066;28;20211;-90
2021/05/08 04:26:47;;;;;;;4.97;1.20;;;10.40;99.90;;;;;;5040482;28;20225;-91
2021/05/08 04:29:19;;;;;;;6.97;1.13;;;10.30;99.90;;;;;;5038534;28;20569;-90
2021/05/08 04:31:54;;;;;;;5.63;1.50;;;10.30;99.90;;;;;;5038488;28;20303;-90
2021/05/08 04:34:24;;;;;;;4.47;1.53;;;10.20;99.90;;;;;;5039596;28;20658;-90
2021/05/08 04:36:53;;;;;;;4.13;1.50;;;10.20;99.90;;;;;;5038465;28;20201;-90
2021/05/08 04:39:25;;;;;;;3.23;1.40;;;10.20;99.90;;;;;;5039084;28;20209;-90
2021/05/08 04:41:56;;;;;;;3.87;1.67;;;10.20;99.90;;;;;;5046585;28;20228;-90
2021/05/08 04:44:26;;;;;;;4.87;1.33;;;10.20;99.90;;;;;;5066656;28;20200;-89
2021/05/08 04:46:57;;;;;;;2.47;1.20;;;10.10;99.90;;;;;;5075322;28;20222;-90
2021/05/08 04:49:28;;;;;;;2.77;1.10;;;10.10;99.90;;;;;;5076225;28;20224;-90
2021/05/08 04:51:59;;;;;;;4.20;1.63;;;10.10;99.90;;;;;;5076291;28;20196;-90
2021/05/08 04:54:31;;;;;;;3.37;1.30;;;10.20;99.90;;;;;;5078616;28;20208;-89
2021/05/08 04:57:03;;;;;;;5.40;1.60;;;10.20;99.90;;;;;;5078957;28;20204;-90
2021/05/08 04:59:33;;;;;;;4.50;1.40;;;10.20;99.90;;;;;;5061981;28;20243;-89
2021/05/08 05:02:04;;;;;;;2.50;1.23;;;10.20;99.90;;;;;;5069793;28;20593;-90
2021/05/08 05:04:34;;;;;;;3.37;1.50;;;10.20;99.90;;;;;;5069791;28;20605;-90
2021/05/08 05:07:05;;;;;;;4.63;1.70;;;10.20;99.90;;;;;;5061511;28;20311;-90
2021/05/08 05:09:37;;;;;;;3.33;1.30;;;10.20;99.90;;;;;;5079166;28;20272;-89
2021/05/08 05:12:08;;;;;;;3.53;1.73;;;10.20;99.90;;;;;;5075545;28;20234;-89
2021/05/08 05:14:41;;;;;;;8.17;1.70;;;10.20;99.90;;;;;;5051660;28;20208;-89
2021/05/08 05:17:11;;;;;;;4.27;1.37;;;10.10;99.90;;;;;;5048725;28;20205;-90
2021/05/08 05:19:42;;;;;;;6.67;1.80;;;10.10;99.90;;;;;;5047248;28;20208;-90
2021/05/08 05:22:13;;;;;;;4.50;1.43;;;10.10;99.90;;;;;;5044083;28;20335;-90
2021/05/08 05:24:47;;;;;;;4.10;1.40;;;10.10;99.90;;;;;;5040311;28;20216;-90
2021/05/08 05:27:16;;;;;;;6.07;1.53;;;10.10;99.90;;;;;;5046388;28;20321;-90
2021/05/08 05:29:48;;;;;;;5.43;1.90;;;10.00;99.90;;;;;;5044478;28;20267;-90
2021/05/08 05:32:19;;;;;;;5.20;1.50;;;10.00;99.90;;;;;;5039628;28;20204;-91
2021/05/08 05:34:50;;;;;;;6.27;1.63;;;9.90;99.90;;;;;;5039034;28;20204;-90
2021/05/08 05:37:21;;;;;;;4.63;1.37;;;9.90;99.90;;;;;;5038610;28;20626;-90
2021/05/08 05:39:54;;;;;;;7.60;1.57;;;10.00;99.90;;;;;;5038447;28;20295;-90
2021/05/08 05:42:26;;;;;;;3.67;1.30;;;10.00;99.90;;;;;;5038527;28;20209;-90
2021/05/08 05:44:57;;;;;;;3.93;1.40;;;10.00;99.90;;;;;;5038486;28;20208;-90
2021/05/08 05:47:31;;;;;;;4.50;1.70;;;10.10;99.90;;;;;;5037814;28;20288;-89
2021/05/08 05:50:03;;;;;;;4.20;1.80;;;10.00;99.90;;;;;;5037613;28;20209;-90
2021/05/08 05:52:34;;;;;;;6.30;1.80;;;10.00;99.90;;;;;;5039164;28;20259;-90
2021/05/08 05:55:06;;;;;;;3.70;1.53;;;10.10;99.90;;;;;;5038080;28;20204;-90
2021/05/08 05:57:38;;;;;;;5.70;1.40;;;10.00;99.90;;;;;;5037384;28;20220;-90
2021/05/08 06:00:10;;;;;;;1.13;0.60;;;10.00;99.90;;;;;;5037672;28;20251;-90
2021/05/08 06:02:40;;;;;;;1.73;0.70;;;9.80;99.90;;;;;;5038132;28;20619;-89
2021/05/08 06:05:15;;;;;;;0.90;0.50;;;9.50;99.90;;;;;;5036778;28;20216;-90
2021/05/08 06:07:46;;;;;;;1.77;0.50;;;9.40;99.90;;;;;;5020069;28;20669;-90
2021/05/08 06:10:18;;;;;;;0.93;0.70;;;9.30;99.90;;;;;;5037086;28;20605;-89
2021/05/08 06:12:48;;;;;;;1.20;0.60;;;8.90;99.90;;;;;;5036847;28;20559;-90
2021/05/08 06:15:19;;;;;;;1.23;0.60;;;8.80;99.90;;;;;;5037306;28;20252;-89
2021/05/08 06:17:52;;;;;;;0.67;0.60;;;8.90;99.90;;;;;;5036793;28;20203;-90
2021/05/08 06:20:22;;;;;;;1.17;0.60;;;9.00;99.90;;;;;;5037202;28;20205;-91
2021/05/08 06:22:54;;;;;;;1.70;0.73;;;9.10;99.90;;;;;;5036493;28;20262;-90
2021/05/08 06:25:27;;;;;;;0.70;0.60;;;9.00;99.90;;;;;;5017043;28;20213;-90
2021/05/08 06:27:57;;;;;;;1.03;0.53;;;9.00;99.90;;;;;;5028652;28;20224;-90
2021/05/08 06:30:27;;;;;;;0.80;0.50;;;9.00;99.90;;;;;;5036193;28;20212;-90
2021/05/08 06:32:58;;;;;;;1.87;0.50;;;8.80;99.90;;;;;;5036699;28;20251;-90
2021/05/08 06:35:29;;;;;;;0.70;0.60;;;8.90;99.90;;;;;;5041350;28;20205;-90
2021/05/08 06:38:01;;;;;;;1.20;0.60;;;9.00;99.90;;;;;;5057490;28;20258;-90
2021/05/08 06:40:34;;;;;;;0.60;0.40;;;9.00;99.90;;;;;;5056372;28;20208;-90
2021/05/08 06:43:04;;;;;;;0.93;0.60;;;8.80;99.90;;;;;;5056773;28;20204;-90
2021/05/08 06:45:35;;;;;;;1.77;0.80;;;8.70;99.90;;;;;;5057362;28;20263;-89
2021/05/08 06:48:07;;;;;;;0.70;0.50;;;8.80;99.90;;;;;;5056263;28;20224;-89
2021/05/08 06:50:38;;;;;;;1.53;0.70;;;8.80;99.90;;;;;;5056519;28;20240;-89
2021/05/08 06:53:08;;;;;;;1.13;0.50;;;8.80;99.90;;;;;;5057060;28;20242;-89
2021/05/08 06:55:42;;;;;;;0.80;0.60;;;8.80;99.90;;;;;;5056346;28;20212;-90
2021/05/08 06:58:13;;;;;;;1.80;0.60;;;8.80;99.90;;;;;;5038651;28;20201;-90
2021/05/08 07:00:44;;;;;;;1.70;0.60;;;8.80;99.90;;;;;;5056430;28;20212;-90
2021/05/08 07:03:14;;;;;;;2.07;0.80;;;8.80;99.90;;;;;;5056133;28;20212;-90
2021/05/08 07:05:45;;;;;;;1.40;0.80;;;8.70;99.90;;;;;;5056026;28;20205;-89
2021/05/08 07:08:16;;;;;;;1.07;0.70;;;8.70;99.90;;;;;;5056438;28;20243;-90
2021/05/08 07:10:50;;;;;;;1.20;0.67;;;8.70;99.90;;;;;;5056291;28;20207;-90
2021/05/08 07:13:21;;;;;;;2.83;0.63;;;8.80;99.90;;;;;;5056557;28;20291;-90
2021/05/08 07:15:56;;;;;;;1.57;0.67;;;8.80;99.90;;;;;;5055973;28;20203;-89
2021/05/08 07:18:27;;;;;;;1.17;0.90;;;8.80;99.90;;;;;;5055862;28;20212;-90
2021/05/08 07:20:58;;;;;;;1.90;0.80;;;8.70;99.90;;;;;;5056482;28;20625;-90
2021/05/08 07:23:29;;;;;;;1.67;0.90;;;8.70;99.90;;;;;;5061748;28;20212;-90
2021/05/08 07:26:02;;;;;;;1.33;0.80;;;8.70;99.90;;;;;;5066543;28;20204;-90
2021/05/08 07:28:33;;;;;;;2.30;0.97;;;8.70;99.90;;;;;;5064462;28;20519;-90
2021/05/08 07:31:03;;;;;;;0.97;0.70;;;8.60;99.90;;;;;;5040075;28;20208;-90
2021/05/08 07:33:34;;;;;;;1.53;0.77;;;8.50;99.90;;;;;;5038202;28;20267;-90
2021/05/08 07:36:05;;;;;;;2.13;0.80;;;8.60;99.90;;;;;;5037042;28;20325;-90
2021/05/08 07:38:36;;;;;;;1.07;0.90;;;8.70;99.90;;;;;;5035299;28;20212;-89
2021/05/08 07:41:08;;;;;;;1.03;0.60;;;8.60;99.90;;;;;;5036208;28;20209;-91
2021/05/08 07:43:40;;;;;;;1.47;0.70;;;8.60;99.90;;;;;;5037327;28;20697;-90
2021/05/08 07:46:10;;;;;;;1.13;0.90;;;8.70;99.90;;;;;;5021360;28;20240;-90
2021/05/08 07:48:41;;;;;;;1.43;0.73;;;8.70;99.90;;;;;;5039763;28;20205;-90
2021/05/08 07:51:12;;;;;;;1.43;0.70;;;8.70;99.90;;;;;;5040312;28;20200;-90
2021/05/08 07:53:43;;;;;;;2.53;1.00;;;8.60;99.90;;;;;;5038095;28;20731;-90
2021/05/08 07:56:15;;;;;;;1.43;0.73;;;8.70;99.90;;;;;;5035467;28;20209;-90
2021/05/08 07:58:46;;;;;;;1.57;0.80;;;8.70;99.90;;;;;;5001526;28;20220;-90
2021/05/08 08:01:17;;;;;;;2.50;0.70;;;8.60;99.90;;;;;;5035010;28;20266;-90
2021/05/08 08:03:48;;;;;;;1.90;0.90;;;8.70;99.90;;;;;;5035484;28;20636;-90
2021/05/08 08:06:19;;;;;;;1.43;0.80;;;8.70;99.90;;;;;;5037440;28;20657;-90
2021/05/08 08:08:49;;;;;;;1.63;0.80;;;8.60;99.90;;;;;;5034388;28;20208;-90
2021/05/08 08:11:21;;;;;;;1.07;0.80;;;8.50;99.90;;;;;;5036951;28;20215;-90
2021/05/08 08:13:52;;;;;;;3.33;1.00;;;8.40;99.90;;;;;;5036518;28;20230;-90
2021/05/08 08:16:23;;;;;;;2.60;1.03;;;8.40;99.90;;;;;;5018726;28;20552;-90
2021/05/08 08:18:54;;;;;;;0.87;0.70;;;8.40;99.90;;;;;;5035051;28;20229;-90
2021/05/08 08:21:25;;;;;;;2.50;0.80;;;8.40;99.90;;;;;;5038831;28;20223;-91
2021/05/08 08:23:56;;;;;;;3.33;0.97;;;8.50;99.90;;;;;;5037706;28;20204;-91
2021/05/08 08:26:29;;;;;;;1.67;0.80;;;8.50;99.90;;;;;;5035657;28;20220;-91
2021/05/08 08:28:59;;;;;;;2.77;1.10;;;8.50;99.90;;;;;;5035551;28;20204;-90
2021/05/08 08:31:31;;;;;;;1.20;0.83;;;8.50;99.90;;;;;;5019019;28;20216;-91
2021/05/08 08:34:02;;;;;;;2.90;1.33;;;8.40;99.90;;;;;;5038055;28;20207;-91
2021/05/08 08:36:32;;;;;;;3.40;0.90;;;8.40;99.90;;;;;;5054296;28;20208;-93
2021/05/08 08:39:02;;;;;;;2.57;0.90;;;8.40;99.90;;;;;;5054246;28;20212;-91
2021/05/08 08:41:34;;;;;;;3.40;0.90;;;8.30;99.90;;;;;;5054686;28;20643;-91
2021/05/08 08:44:09;;;;;;;1.53;0.80;;;8.30;99.90;;;;;;5054915;28;20699;-91
2021/05/08 08:46:42;;;;;;;1.90;0.70;;;8.30;99.90;;;;;;5053543;28;20251;-91
2021/05/08 08:49:14;;;;;;;2.10;1.00;;;8.30;99.90;;;;;;5054248;28;20197;-91
2021/05/08 08:51:46;;;;;;;3.03;1.17;;;8.40;99.90;;;;;;5055421;28;20599;-91
2021/05/08 08:54:18;;;;;;;2.37;0.93;;;8.20;99.90;;;;;;5055776;28;20242;-90
2021/05/08 08:56:52;;;;;;;1.50;0.80;;;8.30;99.90;;;;;;5054001;28;20217;-90
2021/05/08 08:59:28;;;;;;;1.90;0.83;;;8.20;99.90;;;;;;5054731;28;20275;-90
2021/05/08 09:01:59;;;;;;;0.90;0.70;;;8.20;99.90;;;;;;5056055;28;20629;-90
2021/05/08 09:04:29;;;;;;;1.93;0.80;;;8.20;99.90;;;;;;5056012;28;20226;-90
2021/05/08 09:07:01;;;;;;;1.40;0.90;;;8.20;99.90;;;;;;5054628;28;20289;-90
2021/05/08 09:09:36;;;;;;;1.10;0.70;;;8.30;99.90;;;;;;5053887;28;20200;-90
2021/05/08 09:12:15;;;;;;;1.87;1.10;;;8.20;99.90;;;;;;5054309;28;20215;-90
2021/05/08 09:14:50;;;;;;;1.23;0.70;;;8.20;99.90;;;;;;5054207;28;20211;-90
2021/05/08 09:17:24;;;;;;;1.20;0.70;;;8.20;99.90;;;;;;5053603;28;20207;-90
2021/05/08 09:20:00;;;;;;;1.20;0.90;;;8.10;99.90;;;;;;5054045;28;20297;-90
2021/05/08 09:22:35;;;;;;;1.23;0.70;;;8.10;99.90;;;;;;5054227;28;20205;-90
2021/05/08 09:25:10;;;;;;;1.53;0.93;;;8.10;99.90;;;;;;5054274;28;20622;-91
2021/05/08 09:27:46;;;;;;;2.30;1.00;;;8.10;99.90;;;;;;5054047;28;20638;-91
2021/05/08 09:30:22;;;;;;;0.90;0.70;;;8.00;99.90;;;;;;5054970;28;20208;-91
2021/05/08 09:33:04;;;;;;;1.80;0.90;;;7.90;99.90;;;;;;5054478;28;20262;-90
2021/05/08 09:35:35;;;;;;;3.00;1.10;;;7.90;99.90;;;;;;5037640;28;20238;-90
2021/05/08 09:38:10;;;;;;;2.33;0.93;;;8.00;99.90;;;;;;5053842;28;20431;-91
2021/05/08 09:40:44;;;;;;;2.20;1.10;;;8.00;99.90;;;;;;5068583;28;20207;-90
2021/05/08 09:43:17;;;;;;;1.97;1.10;;;8.00;99.90;;;;;;5069373;28;20223;-91
2021/05/08 09:45:52;;;;;;;2.20;0.73;;;8.00;99.90;;;;;;5074706;28;20203;-91
2021/05/08 09:48:26;;;;;;;3.20;0.87;;;7.90;99.90;;;;;;5066706;28;20284;-90
2021/05/08 09:51:21;;;;;;;1.53;1.07;;;7.90;99.90;;;;;;5060830;28;20204;-90
2021/05/08 09:53:53;;;;;;;2.00;0.90;;;7.90;99.90;;;;;;5058771;28;20202;-91
2021/05/08 09:56:38;;;;;;;1.80;0.80;;;7.90;99.90;;;;;;5057779;28;20203;-90
2021/05/08 09:59:33;;;;;;;4.10;0.80;;;7.90;99.90;;;;;;5031349;28;20207;-90
2021/05/08 10:02:15;;;;;;;1.63;1.00;;;7.90;99.90;;;;;;5058073;28;20220;-89
2021/05/08 10:05:13;;;;;;;2.07;1.00;;;7.80;99.90;;;;;;5017677;28;20219;-91
2021/05/08 10:07:44;;;;;;;1.10;1.00;;;7.80;99.90;;;;;;5016724;28;20593;-89
2021/05/08 10:10:15;;;;;;;2.50;1.07;;;7.70;99.90;;;;;;5018267;28;20638;-89
2021/05/08 10:12:48;;;;;;;3.67;1.10;;;7.70;99.90;;;;;;5018639;28;20278;-88
2021/05/08 10:15:20;;;;;;;1.73;0.83;;;7.80;99.90;;;;;;5001877;28;20546;-89
2021/05/08 10:17:53;;;;;;;1.63;0.97;;;7.90;99.90;;;;;;5017595;28;20216;-89
2021/05/08 10:20:23;;;;;;;3.83;1.40;;;7.90;99.90;;;;;;5019661;28;20223;-89
2021/05/08 10:22:58;;;;;;;5.03;1.23;;;8.00;99.90;;;;;;5019361;28;20235;-89
2021/05/08 10:25:30;;;;;;;2.80;1.10;;;8.00;99.90;;;;;;5051787;28;20599;-89
2021/05/08 10:28:01;;;;;;;3.00;1.07;;;8.00;99.90;;;;;;5049253;28;20236;-89
2021/05/08 10:30:35;;;;;;;2.30;1.10;;;8.00;99.90;;;;;;5057430;28;20209;-90
2021/05/08 10:33:10;;;;;;;2.17;1.13;;;7.90;99.90;;;;;;5065936;28;20235;-91
2021/05/08 10:35:43;;;;;;;2.17;1.00;;;8.00;99.90;;;;;;5073520;28;20211;-90
2021/05/08 10:38:19;;;;;;;2.43;1.07;;;8.00;99.90;;;;;;5074317;28;20685;-90
2021/05/08 10:40:51;;;;;;;1.80;1.10;;;8.00;99.90;;;;;;5073663;28;20212;-90
2021/05/08 10:43:55;;;;;;;3.17;1.27;;;8.00;99.90;;;;;;5058622;28;20204;-90
2021/05/08 10:46:28;;;;;;;3.67;1.50;;;8.00;99.90;;;;;;5058717;28;20211;-89
2021/05/08 10:49:23;;;;;;;2.37;1.20;;;8.10;99.90;;;;;;5058271;28;20329;-90
2021/05/08 10:51:58;;;;;;;5.50;1.23;;;8.00;99.90;;;;;;5033147;28;20215;-89
2021/05/08 10:54:53;;;;;;;4.47;1.30;;;7.80;99.90;;;;;;5048507;28;20239;-90
2021/05/08 10:57:26;;;;;;;4.50;1.47;;;7.80;99.90;;;;;;5037411;28;20677;-90
2021/05/08 11:00:34;;;;;;;2.63;1.30;;;7.90;99.90;;;;;;5020585;28;20666;-89
2021/05/08 11:03:07;;;;;;;6.33;1.50;;;7.90;99.90;;;;;;5036946;28;20216;-89
2021/05/08 11:05:39;;;;;;;6.37;1.40;;;7.90;99.90;;;;;;5036180;28;20214;-89
2021/05/08 11:08:46;;;;;;;4.13;1.30;;;8.00;99.90;;;;;;5035718;28;20278;-89
2021/05/08 11:11:19;;;;;;;4.63;1.30;;;7.60;99.90;;;;;;5036891;28;20277;-89
2021/05/08 11:13:56;;;;;;;6.27;1.80;;;7.60;99.90;;;;;;5036457;28;20215;-89
2021/05/08 11:16:28;;;;;;;4.70;1.90;;;7.70;99.90;;;;;;5034119;28;20260;-89
2021/05/08 11:19:01;;;;;;;4.20;1.20;;;7.80;99.90;;;;;;5035797;28;20209;-90
2021/05/08 11:21:43;;;;;;;3.87;1.70;;;7.70;99.90;;;;;;5036409;28;20236;-89
2021/05/08 11:24:14;;;;;;;7.43;1.80;;;7.70;99.90;;;;;;5036071;28;20209;-89
2021/05/08 11:26:46;;;;;;;6.93;2.10;;;7.40;99.90;;;;;;5037448;28;20237;-89
2021/05/08 11:29:19;;;;;;;5.23;1.73;;;7.30;99.90;;;;;;5036837;28;20222;-89
2021/05/08 11:31:51;;;;;;;4.77;1.50;;;7.10;99.90;;;;;;5037786;28;20667;-89
2021/05/08 11:34:25;;;;;;;6.60;1.90;;;7.10;99.90;;;;;;5036313;28;20217;-90
2021/05/08 11:36:58;;;;;;;6.83;1.43;;;7.10;99.90;;;;;;5036070;28;20205;-90
2021/05/08 11:39:29;;;;;;;6.87;1.50;;;7.10;99.90;;;;;;5037154;28;20206;-90
2021/05/08 11:42:02;;;;;;;5.23;1.90;;;7.20;99.90;;;;;;5038084;28;20213;-89
2021/05/08 11:44:35;;;;;;;4.73;1.60;;;7.10;99.90;;;;;;5036273;28;20229;-90
2021/05/08 11:47:27;;;;;;;8.60;1.70;;;7.10;99.90;;;;;;5035021;28;20208;-90
2021/05/08 11:50:06;;;;;;;5.37;1.43;;;7.20;99.90;;;;;;5036162;28;20569;-90
2021/05/08 11:52:41;;;;;;;2.90;1.50;;;7.10;99.90;;;;;;5036427;28;20209;-90
2021/05/08 11:55:18;;;;;;;5.30;1.40;;;7.10;99.90;;;;;;5043714;28;20212;-90
2021/05/08 11:57:54;;;;;;;3.43;1.30;;;7.10;99.90;;;;;;5047475;28;20202;-89
2021/05/08 12:00:27;;;;;;;4.47;1.53;;;7.10;99.90;;;;;;5046630;28;20213;-89
2021/05/08 12:03:09;;;;;;;4.87;1.40;;;7.10;99.90;;;;;;5037700;28;20209;-90
2021/05/08 12:05:43;;;;;;;5.23;1.50;;;7.10;99.90;;;;;;5038125;28;20617;-87
2021/05/08 12:08:15;;;;;;;5.67;1.43;;;7.10;99.90;;;;;;5017708;28;20263;-89
2021/05/08 12:10:47;;;;;;;5.03;1.70;;;7.20;99.90;;;;;;5038330;28;20240;-88
2021/05/08 12:13:28;;;;;;;6.33;1.73;;;7.10;99.90;;;;;;5035354;28;20688;-88
2021/05/08 12:16:03;;;;;;;7.67;1.70;;;7.10;99.90;;;;;;5037523;28;20304;-88
2021/05/08 12:18:34;;;;;;;5.00;1.50;;;7.10;99.90;;;;;;5034770;28;20212;-88
2021/05/08 12:21:08;;;;;;;5.80;1.73;;;7.10;99.90;;;;;;5035568;28;20212;-89
2021/05/08 12:23:39;;;;;;;4.70;1.70;;;7.10;99.90;;;;;;5034488;28;20248;-89
2021/05/08 12:26:13;;;;;;;5.87;1.97;;;7.00;99.90;;;;;;5034820;28;20201;-88
2021/05/08 12:28:56;;;;;;;6.80;1.40;;;7.00;99.90;;;;;;5042028;28;20273;-89
2021/05/08 12:31:29;;;;;;;7.30;1.57;;;6.90;99.90;;;;;;5053514;28;20214;-88
2021/05/08 12:34:07;;;;;;;5.63;1.40;;;6.90;99.90;;;;;;5054221;28;20262;-89
2021/05/08 12:36:40;;;;;;;6.27;1.77;;;6.80;99.90;;;;;;5053798;28;20226;-90
2021/05/08 12:39:28;;;;;;;7.03;1.77;;;6.90;99.90;;;;;;5054855;28;20226;-89
2021/05/08 12:42:00;;;;;;;4.63;1.43;;;6.80;99.90;;;;;;5055133;28;20204;-90
2021/05/08 12:44:33;;;;;;;3.53;1.77;;;6.90;99.90;;;;;;5054435;28;20735;-89
2021/05/08 12:47:15;;;;;;;5.63;1.60;;;6.80;99.90;;;;;;5053718;28;20223;-90
2021/05/08 12:50:22;;;;;;;5.57;1.40;;;6.80;99.90;;;;;;5054614;28;20221;-89
2021/05/08 12:53:02;;;;;;;4.30;1.63;;;6.90;99.90;;;;;;4967434;28;20680;-90
2021/05/08 12:55:33;;;;;;;3.83;1.70;;;6.90;99.90;;;;;;5027864;28;20210;-89
2021/05/08 12:58:14;;;;;;;5.60;1.57;;;6.90;99.90;;;;;;5033444;28;20255;-89
2021/05/08 13:00:48;;;;;;;3.77;1.60;;;6.90;99.90;;;;;;5035061;28;20204;-90
2021/05/08 13:03:25;;;;;;;4.27;1.77;;;6.90;99.90;;;;;;5034527;28;20208;-88
2021/05/08 13:05:56;;;;;;;6.20;1.90;;;6.80;99.90;;;;;;5034463;28;20209;-88
2021/05/08 13:08:47;;;;;;;2.93;1.60;;;6.80;99.90;;;;;;5033310;28;20282;-89
2021/05/08 13:11:33;;;;;;;3.43;1.40;;;6.80;99.90;;;;;;5034686;28;20335;-88
2021/05/08 13:14:20;;;;;;;6.33;2.07;;;6.60;99.90;;;;;;5035591;28;20220;-89
2021/05/08 13:16:54;;;;;;;3.73;1.70;;;6.60;99.90;;;;;;5037468;28;20554;-89
2021/05/08 13:19:26;;;;;;;3.73;1.80;;;6.70;99.90;;;;;;5039947;28;20205;-88
2021/05/08 13:21:57;;;;;;;6.80;1.90;;;6.80;99.90;;;;;;5038774;28;20707;-89
2021/05/08 13:24:31;;;;;;;8.63;1.93;;;6.80;99.90;;;;;;5040233;28;20204;-89